Time;durP1;ratioP1;P1;durP2;ratioP2;P2;SDS_P1;SDS_P2;PMS_P1;PMS_P2;Temp;Humidity;BMP_temperature;BMP_pressure;BME280_temperature;BME280_humidity;BME280_pressure;Samples;Min_cycle;Max_cycle;Signal;HPM_P1;HPM_P2
2021/07/10 00:00:33;;;;;;;10.23;8.30;;;;;;;24.85;52.50;100169.88;5088888;28;20427;1
2021/07/10 00:03:00;;;;;;;13.82;8.93;;;;;;;24.45;53.30;100117.00;5089328;28;20048;0
2021/07/10 00:05:26;;;;;;;10.98;8.65;;;;;;;24.74;54.06;100191.94;5089757;28;20090;0
2021/07/10 00:07:52;;;;;;;13.32;8.27;;;;;;;24.32;54.38;100124.06;5070717;28;20043;0
2021/07/10 00:10:19;;;;;;;9.38;8.38;;;;;;;24.60;54.16;100179.34;5088768;28;20427;0
2021/07/10 00:12:45;;;;;;;13.30;8.90;;;;;;;24.53;54.77;100183.38;5075035;28;20048;-3
2021/07/10 00:15:15;;;;;;;12.70;8.80;;;;;;;24.38;55.26;100179.78;5075584;28;20071;1
2021/07/10 00:17:41;;;;;;;17.38;8.98;;;;;;;23.98;55.27;100131.38;5075228;28;20048;1
2021/07/10 00:20:10;;;;;;;13.95;9.32;;;;;;;24.25;55.54;100191.19;5075080;28;20157;1
2021/07/10 00:22:36;;;;;;;10.48;8.38;;;;;;;24.22;54.64;100185.16;5075740;28;20045;0
2021/07/10 00:25:12;;;;;;;13.02;9.20;;;;;;;24.16;55.86;100174.84;5075131;28;20090;0
2021/07/10 00:27:40;;;;;;;12.77;8.98;;;;;;;24.25;55.15;100196.53;5075129;28;20044;0
2021/07/10 00:30:09;;;;;;;11.80;9.13;;;;;;;23.93;56.07;100156.53;5075241;28;20078;3
2021/07/10 00:32:36;;;;;;;11.82;9.25;;;;;;;24.11;56.31;100196.47;5075204;28;20129;2
2021/07/10 00:35:05;;;;;;;8.80;7.75;;;;;;;24.05;56.10;100187.03;5074042;28;20455;1
2021/07/10 00:37:32;;;;;;;10.85;8.90;;;;;;;23.93;57.11;100174.38;5074908;28;20052;1
2021/07/10 00:39:58;;;;;;;14.23;10.10;;;;;;;24.05;56.92;100188.81;5075007;28;20489;2
2021/07/10 00:42:24;;;;;;;12.80;10.15;;;;;;;24.02;56.99;100197.00;5075700;28;20515;1
2021/07/10 00:44:50;;;;;;;13.73;9.10;;;;;;;24.03;55.71;100190.72;5075057;28;20123;2
2021/07/10 00:47:18;;;;;;;16.23;10.50;;;;;;;24.18;56.73;100199.66;5074664;28;20048;1
2021/07/10 00:49:45;;;;;;;14.57;9.13;;;;;;;23.88;56.46;100145.22;5074241;28;20032;0
2021/07/10 00:52:11;;;;;;;12.82;8.48;;;;;;;23.95;56.79;100141.28;5074567;28;20036;1
2021/07/10 00:54:37;;;;;;;12.43;10.40;;;;;;;24.14;56.89;100185.63;5074689;28;20044;1
2021/07/10 00:57:07;;;;;;;12.20;9.82;;;;;;;24.11;56.49;100167.94;5074570;28;20086;1
2021/07/10 00:59:33;;;;;;;10.23;8.45;;;;;;;24.24;55.83;100192.16;5075050;28;20039;1
2021/07/10 01:01:59;;;;;;;14.85;10.90;;;;;;;23.90;56.57;100134.50;5074864;28;20110;1
2021/07/10 01:04:25;;;;;;;12.52;9.98;;;;;;;23.73;57.12;100141.63;5074984;28;20032;1
2021/07/10 01:06:52;;;;;;;12.70;10.82;;;;;;;23.77;57.27;100147.66;5074408;28;20504;1
2021/07/10 01:09:18;;;;;;;13.18;9.50;;;;;;;24.19;55.60;100201.38;5074156;28;20039;0
2021/07/10 01:11:44;;;;;;;11.88;10.38;;;;;;;24.08;56.91;100204.69;5074209;28;20044;1
2021/07/10 01:14:11;;;;;;;14.02;10.02;;;;;;;23.89;57.59;100189.66;5073285;28;20408;1
2021/07/10 01:16:37;;;;;;;17.75;10.23;;;;;;;24.01;57.42;100203.28;5074453;28;20446;0
2021/07/10 01:19:05;;;;;;;11.65;10.13;;;;;;;23.67;58.10;100179.34;5074220;28;20093;-2
2021/07/10 01:21:31;;;;;;;13.07;10.60;;;;;;;23.60;59.02;100202.84;5074223;28;20105;1
2021/07/10 01:23:57;;;;;;;13.77;11.00;;;;;;;23.59;59.05;100211.78;5073304;28;20044;0
2021/07/10 01:26:23;;;;;;;11.30;10.15;;;;;;;23.45;59.19;100185.88;5074180;28;20539;2
2021/07/10 01:28:49;;;;;;;11.40;10.20;;;;;;;23.48;59.44;100206.19;5073915;28;20083;1
2021/07/10 01:31:18;;;;;;;15.45;9.93;;;;;;;23.43;59.74;100203.75;5073831;28;20033;1
2021/07/10 01:33:44;;;;;;;12.57;10.57;;;;;;;23.43;59.72;100195.75;5074080;28;20452;1
2021/07/10 01:36:10;;;;;;;12.30;9.60;;;;;;;23.62;59.25;100203.63;5073794;28;20081;2
2021/07/10 01:38:36;;;;;;;13.10;10.02;;;;;;;23.42;58.90;100154.00;5073981;28;20034;1
2021/07/10 01:41:03;;;;;;;10.82;9.73;;;;;;;23.45;57.86;100144.97;5073734;28;20539;1
2021/07/10 01:43:29;;;;;;;12.82;9.15;;;;;;;23.83;57.38;100174.00;5073558;28;20044;2
2021/07/10 01:45:55;;;;;;;15.88;10.15;;;;;;;23.75;58.39;100165.56;5073741;28;20416;1
2021/07/10 01:48:21;;;;;;;15.00;11.15;;;;;;;23.78;58.70;100190.28;5072597;28;20527;1
2021/07/10 01:50:47;;;;;;;14.55;10.27;;;;;;;23.52;59.12;100166.84;5073392;28;20028;1
2021/07/10 01:53:16;;;;;;;12.73;10.13;;;;;;;23.58;58.97;100199.41;5073404;28;20044;2
2021/07/10 01:55:43;;;;;;;12.52;9.70;;;;;;;23.16;59.20;100136.78;5073619;28;20503;1
2021/07/10 01:58:09;;;;;;;10.05;8.27;;;;;;;23.72;57.74;100192.44;5073615;28;20532;0
2021/07/10 02:00:43;;;;;;;13.32;9.68;;;;;;;23.72;58.06;100171.06;5073420;28;20047;0
2021/07/10 02:03:11;;;;;;;11.93;10.57;;;;;;;23.81;58.88;100207.06;5073523;28;20526;0
2021/07/10 02:05:38;;;;;;;7.85;7.05;;;;;;;23.87;56.85;100193.34;5073227;28;20036;1
2021/07/10 02:08:05;;;;;;;11.70;10.20;;;;;;;23.87;58.41;100196.03;5073111;28;20043;0
2021/07/10 02:10:33;;;;;;;10.05;8.77;;;;;;;23.93;56.82;100198.38;5072935;28;20059;0
2021/07/10 02:13:04;;;;;;;12.23;10.23;;;;;;;23.48;58.48;100146.63;5073083;28;20459;0
2021/07/10 02:15:30;;;;;;;14.70;10.75;;;;;;;23.65;59.32;100205.25;5073253;28;20058;1
2021/07/10 02:17:57;;;;;;;10.90;8.70;;;;;;;23.75;58.04;100185.13;5072991;28;20032;2
2021/07/10 02:20:26;;;;;;;11.43;10.07;;;;;;;23.38;58.99;100135.63;5072798;28;20062;2
2021/07/10 02:22:54;;;;;;;11.98;10.60;;;;;;;23.92;58.09;100189.53;5072946;28;20070;1
2021/07/10 02:25:23;;;;;;;14.18;9.68;;;;;;;23.84;58.04;100157.03;5072808;28;20066;1
2021/07/10 02:27:50;;;;;;;13.35;10.02;;;;;;;23.57;58.40;100138.97;5071535;28;20063;1
2021/07/10 02:30:21;;;;;;;16.88;10.35;;;;;;;23.55;58.23;100134.66;5072993;28;20058;1
2021/07/10 02:32:47;;;;;;;12.00;9.65;;;;;;;24.10;57.20;100176.06;5071915;28;20085;1
2021/07/10 02:35:15;;;;;;;8.55;7.15;;;;;;;24.13;55.05;100153.66;5072746;28;20436;1
2021/07/10 02:37:43;;;;;;;11.73;10.00;;;;;;;23.75;57.42;100125.53;5071765;28;20037;1
2021/07/10 02:40:12;;;;;;;15.55;10.23;;;;;;;24.08;57.41;100183.31;5072797;28;20029;2
2021/07/10 02:42:39;;;;;;;11.57;9.82;;;;;;;23.72;57.29;100128.38;5072668;28;20037;1
2021/07/10 02:45:10;;;;;;;13.32;10.68;;;;;;;24.04;57.37;100176.41;5072661;28;20052;1
2021/07/10 02:47:39;;;;;;;11.10;9.18;;;;;;;23.88;55.97;100134.53;5073232;28;20043;1
2021/07/10 02:50:09;;;;;;;15.00;9.75;;;;;;;24.23;57.09;100166.38;5073011;28;20048;0
2021/07/10 02:52:35;;;;;;;10.75;8.45;;;;;;;23.99;55.64;100130.41;5072840;28;20037;0
2021/07/10 02:55:03;;;;;;;8.98;7.75;;;;;;;24.15;54.35;100119.72;5072807;28;20189;2
2021/07/10 02:57:29;;;;;;;11.30;7.57;;;;;;;24.31;55.32;100119.66;5072956;28;20036;0
2021/07/10 02:59:55;;;;;;;11.25;8.77;;;;;;;24.88;55.63;100175.91;5072687;28;20047;0
2021/07/10 03:02:21;;;;;;;11.57;9.68;;;;;;;24.78;54.96;100182.78;5073247;28;20369;0
2021/07/10 03:04:47;;;;;;;14.45;10.05;;;;;;;24.50;54.96;100125.63;5071286;28;20198;0
2021/07/10 03:07:13;;;;;;;14.45;10.98;;;;;;;24.42;55.14;100154.63;5072494;28;20126;1
2021/07/10 03:09:39;;;;;;;10.32;7.72;;;;;;;24.88;53.29;100165.22;5072347;28;20131;1
2021/07/10 03:12:06;;;;;;;12.70;10.23;;;;;;;25.18;54.36;100174.97;5072520;28;20075;1
2021/07/10 03:14:33;;;;;;;13.73;10.30;;;;;;;24.77;55.40;100173.06;5072253;28;20036;1
2021/07/10 03:17:00;;;;;;;12.40;10.15;;;;;;;24.90;55.51;100187.38;5072500;28;20114;1
2021/07/10 03:19:26;;;;;;;12.00;9.65;;;;;;;24.45;55.17;100114.34;5072367;28;20137;2
2021/07/10 03:21:52;;;;;;;12.43;10.50;;;;;;;24.69;55.85;100178.88;5070901;28;20046;1
2021/07/10 03:24:18;;;;;;;14.20;10.23;;;;;;;24.40;55.82;100116.44;5072051;28;20127;0
2021/07/10 03:26:44;;;;;;;14.55;11.10;;;;;;;24.37;55.72;100113.97;5071296;28;20500;1
2021/07/10 03:29:10;;;;;;;14.00;11.23;;;;;;;24.61;56.53;100179.28;5072582;28;20080;1
2021/07/10 03:31:36;;;;;;;11.82;10.63;;;;;;;24.50;56.48;100162.19;5072399;28;20041;1
2021/07/10 03:34:02;;;;;;;7.50;6.68;;;;;;;24.82;53.86;100167.41;5072103;28;20135;1
2021/07/10 03:36:29;;;;;;;8.27;7.35;;;;;;;24.70;53.32;100110.22;5072160;28;20040;1
2021/07/10 03:38:55;;;;;;;14.63;10.52;;;;;;;24.61;55.23;100107.13;5072175;28;20162;0
2021/07/10 03:41:21;;;;;;;11.73;9.32;;;;;;;25.13;54.53;100161.03;5071931;28;20029;1
2021/07/10 03:43:48;;;;;;;12.90;10.13;;;;;;;24.66;55.38;100130.06;5072346;28;20045;1
2021/07/10 03:46:14;;;;;;;14.60;9.93;;;;;;;25.00;54.87;100168.09;5073259;28;20040;1
2021/07/10 03:48:40;;;;;;;10.88;8.15;;;;;;;24.92;51.98;100107.06;5075862;28;20162;1
2021/07/10 03:51:09;;;;;;;14.55;10.88;;;;;;;24.69;54.57;100108.47;5075680;28;20120;0
2021/07/10 03:53:35;;;;;;;13.32;10.13;;;;;;;25.06;54.12;100167.72;5076006;28;20553;0
2021/07/10 03:56:01;;;;;;;9.10;7.70;;;;;;;25.33;52.29;100169.59;5075694;28;20063;2
2021/07/10 03:58:29;;;;;;;9.75;8.45;;;;;;;25.15;54.09;100161.78;5076215;28;20557;1
2021/07/10 04:00:56;;;;;;;9.70;7.80;;;;;;;25.13;52.91;100158.34;5075557;28;20032;1
2021/07/10 04:03:22;;;;;;;11.85;8.00;;;;;;;24.98;53.13;100159.28;5075700;28;20049;1
2021/07/10 04:05:48;;;;;;;8.73;7.82;;;;;;;24.92;52.89;100101.72;5074862;28;20041;1
2021/07/10 04:08:14;;;;;;;13.27;10.90;;;;;;;24.79;53.16;100095.41;5075689;28;20127;1
2021/07/10 04:10:40;;;;;;;10.57;7.78;;;;;;;25.25;51.84;100129.94;5075151;28;20078;1
2021/07/10 04:13:11;;;;;;;11.85;9.27;;;;;;;25.36;52.69;100156.94;5074088;28;20040;1
2021/07/10 04:15:37;;;;;;;14.25;11.27;;;;;;;25.29;52.71;100125.28;5075409;28;20041;1
2021/07/10 04:18:04;;;;;;;15.52;10.40;;;;;;;25.57;52.13;100154.69;5075237;28;20060;1
2021/07/10 04:20:30;;;;;;;15.23;10.70;;;;;;;25.15;52.54;100097.59;5074179;28;20471;0
2021/07/10 04:22:56;;;;;;;15.88;11.15;;;;;;;25.31;53.52;100150.97;5075529;28;20158;0
2021/07/10 04:25:22;;;;;;;14.43;10.02;;;;;;;25.31;53.87;100142.09;5074211;28;20540;1
2021/07/10 04:27:48;;;;;;;14.82;10.82;;;;;;;25.30;53.84;100151.94;5075070;28;20032;1
2021/07/10 04:30:18;;;;;;;13.75;11.05;;;;;;;25.34;53.91;100126.69;5075029;28;20142;1
2021/07/10 04:32:45;;;;;;;15.32;11.00;;;;;;;25.25;53.75;100104.06;5075318;28;20051;1
2021/07/10 04:35:12;;;;;;;16.20;10.90;;;;;;;25.58;53.23;100144.84;5075048;28;20523;1
2021/07/10 04:37:38;;;;;;;14.93;11.15;;;;;;;25.49;54.15;100153.44;5075040;28;20078;1
2021/07/10 04:40:07;;;;;;;13.70;9.85;;;;;;;25.33;54.23;100137.50;5074045;28;20086;0
2021/07/10 04:42:34;;;;;;;13.13;9.93;;;;;;;25.05;53.26;100067.03;5074805;28;20513;1
2021/07/10 04:45:00;;;;;;;14.38;10.52;;;;;;;25.27;55.26;100120.03;5075099;28;20059;1
2021/07/10 04:47:26;;;;;;;13.50;10.32;;;;;;;25.28;54.39;100089.66;5074960;28;20035;1
2021/07/10 04:49:52;;;;;;;18.08;11.15;;;;;;;25.63;54.66;100142.75;5074935;28;20119;1
2021/07/10 04:52:18;;;;;;;17.05;12.23;;;;;;;25.39;54.58;100099.69;5073321;28;20032;1
2021/07/10 04:54:44;;;;;;;16.02;10.20;;;;;;;25.39;53.74;100083.63;5074655;28;20075;1
2021/07/10 04:57:10;;;;;;;18.00;11.60;;;;;;;25.26;54.60;100078.16;5074462;28;20059;1
2021/07/10 04:59:36;;;;;;;19.80;11.35;;;;;;;25.22;55.29;100082.84;5074711;28;20090;1
2021/07/10 05:02:03;;;;;;;15.70;12.02;;;;;;;25.32;54.48;100076.91;5075109;28;20040;0
2021/07/10 05:04:29;;;;;;;17.35;11.93;;;;;;;25.56;55.46;100128.03;5074024;28;20040;2
2021/07/10 05:06:55;;;;;;;19.67;11.45;;;;;;;25.46;55.59;100127.78;5074632;28;20528;1
2021/07/10 05:09:21;;;;;;;15.23;11.60;;;;;;;25.36;55.77;100102.56;5073225;28;20062;1
2021/07/10 05:11:48;;;;;;;11.20;10.07;;;;;;;25.84;54.54;100134.25;5074103;28;20079;1
2021/07/10 05:14:15;;;;;;;13.65;11.65;;;;;;;25.78;54.86;100134.66;5074109;28;20461;1
2021/07/10 05:16:41;;;;;;;14.52;12.10;;;;;;;25.76;54.86;100127.59;5074144;28;20130;0
2021/07/10 05:19:08;;;;;;;13.40;9.10;;;;;;;25.89;52.79;100127.63;5073375;28;20048;1
2021/07/10 05:21:34;;;;;;;17.55;11.77;;;;;;;25.79;54.66;100118.50;5073987;28;20044;1
2021/07/10 05:24:01;;;;;;;15.50;11.55;;;;;;;25.79;55.50;100136.34;5074300;28;20444;1
2021/07/10 05:26:28;;;;;;;16.90;11.82;;;;;;;25.51;54.46;100082.81;5073032;28;20525;1
2021/07/10 05:28:54;;;;;;;16.40;11.70;;;;;;;25.88;54.90;100138.47;5073268;28;20052;1
2021/07/10 05:31:20;;;;;;;18.30;12.10;;;;;;;25.64;54.82;100084.69;5073861;28;20538;1
2021/07/10 05:33:47;;;;;;;17.13;11.85;;;;;;;25.61;54.37;100071.53;5074153;28;20051;1
2021/07/10 05:36:12;;;;;;;13.57;10.93;;;;;;;25.76;53.98;100070.47;5074046;28;20049;0
2021/07/10 05:38:38;;;;;;;13.05;11.75;;;;;;;25.78;54.44;100065.03;5073718;28;20523;0
2021/07/10 05:41:05;;;;;;;16.50;12.20;;;;;;;25.76;54.50;100068.69;5073567;28;20033;-3
2021/07/10 05:43:31;;;;;;;17.35;11.98;;;;;;;26.04;54.81;100116.88;5073940;28;20044;2
2021/07/10 05:45:57;;;;;;;13.40;9.02;;;;;;;26.27;51.81;100120.69;5073944;28;20393;2
2021/07/10 05:48:23;;;;;;;12.32;10.02;;;;;;;26.19;52.71;100101.59;5073587;28;20504;1
2021/07/10 05:50:49;;;;;;;14.40;11.80;;;;;;;26.38;53.78;100120.81;5072243;28;20043;1
2021/07/10 05:53:15;;;;;;;19.35;11.88;;;;;;;26.46;53.68;100124.78;5055927;28;20059;0
2021/07/10 05:55:42;;;;;;;14.07;11.57;;;;;;;26.37;53.87;100116.44;5073676;28;20044;1
2021/07/10 05:58:08;;;;;;;14.38;11.70;;;;;;;26.47;53.36;100116.63;5073618;28;20055;1
2021/07/10 06:00:34;;;;;;;15.88;12.00;;;;;;;26.56;52.92;100112.47;5073509;28;20070;1
2021/07/10 06:03:02;;;;;;;17.65;11.80;;;;;;;26.58;53.26;100106.03;5073920;28;20098;1
2021/07/10 06:05:29;;;;;;;14.73;11.25;;;;;;;26.47;53.02;100095.19;5073805;28;20036;1
2021/07/10 06:07:55;;;;;;;15.80;11.63;;;;;;;26.47;53.50;100089.84;5073725;28;20040;1
2021/07/10 06:10:22;;;;;;;15.07;11.60;;;;;;;26.74;53.09;100115.72;5071407;28;20105;2
2021/07/10 06:12:50;;;;;;;14.70;11.25;;;;;;;26.90;51.36;100110.13;5071806;28;20052;2
2021/07/10 06:15:16;;;;;;;13.00;11.60;;;;;;;26.97;52.34;100107.88;5071811;28;20051;2
2021/07/10 06:17:43;;;;;;;15.93;11.68;;;;;;;26.69;52.14;100066.88;5073290;28;20526;1
2021/07/10 06:20:14;;;;;;;12.00;9.55;;;;;;;26.98;50.02;100115.78;5072931;28;20509;2
2021/07/10 06:22:46;;;;;;;12.57;9.43;;;;;;;26.84;51.49;100076.56;5073745;28;20514;1
2021/07/10 06:25:14;;;;;;;15.43;10.57;;;;;;;27.11;51.60;100117.63;5073246;28;20044;1
2021/07/10 06:27:41;;;;;;;13.82;11.48;;;;;;;27.14;52.35;100112.88;5072817;28;20090;1
2021/07/10 06:30:10;;;;;;;15.07;11.63;;;;;;;27.26;51.63;100112.97;5072851;28;20040;1
2021/07/10 06:32:38;;;;;;;17.23;10.73;;;;;;;27.31;49.48;100113.47;5071530;28;20047;1
2021/07/10 06:35:06;;;;;;;20.35;11.85;;;;;;;27.36;51.39;100114.84;5073037;28;20127;1
2021/07/10 06:37:32;;;;;;;15.70;12.15;;;;;;;27.21;51.71;100116.84;5073030;28;20101;0
2021/07/10 06:39:58;;;;;;;14.70;11.82;;;;;;;27.32;51.65;100104.47;5072882;28;20036;1
2021/07/10 06:42:24;;;;;;;17.73;11.32;;;;;;;27.46;51.14;100114.25;5072880;28;20500;1
2021/07/10 06:44:50;;;;;;;17.98;11.07;;;;;;;27.47;49.88;100110.56;5072934;28;20447;1
2021/07/10 06:47:18;;;;;;;18.27;11.27;;;;;;;27.42;50.71;100102.84;5073398;28;20096;1
2021/07/10 06:49:45;;;;;;;16.77;11.23;;;;;;;27.42;50.41;100107.34;5072582;28;20040;1
2021/07/10 06:52:12;;;;;;;14.95;11.73;;;;;;;27.49;50.05;100116.69;5072620;28;20067;1
2021/07/10 06:54:38;;;;;;;20.27;12.65;;;;;;;27.54;50.93;100114.53;5072586;28;20044;1
2021/07/10 06:57:05;;;;;;;19.05;12.52;;;;;;;27.55;50.74;100113.56;5072540;28;20044;1
2021/07/10 06:59:32;;;;;;;14.68;11.50;;;;;;;27.44;50.34;100100.91;5072432;28;20067;0
2021/07/10 07:01:59;;;;;;;12.50;10.80;;;;;;;27.63;50.49;100104.94;5072282;28;20459;1
2021/07/10 07:04:25;;;;;;;20.50;12.55;;;;;;;27.82;50.21;100109.78;5072971;28;20113;1
2021/07/10 07:06:51;;;;;;;14.05;11.43;;;;;;;27.59;49.48;100082.81;5072597;28;20044;1
2021/07/10 07:09:17;;;;;;;14.52;11.95;;;;;;;27.82;49.49;100107.97;5072578;28;20037;1
2021/07/10 07:11:43;;;;;;;14.85;11.30;;;;;;;27.93;48.82;100111.66;5072085;28;20088;1
2021/07/10 07:14:09;;;;;;;15.38;10.98;;;;;;;27.92;47.23;100105.44;5072268;28;20532;1
2021/07/10 07:16:35;;;;;;;14.57;11.52;;;;;;;28.04;47.49;100112.59;5072521;28;20448;1
2021/07/10 07:19:01;;;;;;;13.63;11.25;;;;;;;28.20;48.64;100114.13;5072795;28;20040;1
2021/07/10 07:21:28;;;;;;;12.35;10.82;;;;;;;28.27;47.88;100109.97;5073847;28;20397;1
2021/07/10 07:23:56;;;;;;;13.00;10.10;;;;;;;28.18;46.49;100083.81;5075320;28;20048;1
2021/07/10 07:26:22;;;;;;;11.57;9.70;;;;;;;28.33;45.96;100117.56;5076469;28;20517;1
2021/07/10 07:28:49;;;;;;;16.58;9.45;;;;;;;28.55;45.59;100111.38;5075176;28;20044;1
2021/07/10 07:31:17;;;;;;;14.68;10.93;;;;;;;28.51;46.89;100092.91;5076630;28;20123;1
2021/07/10 07:33:43;;;;;;;18.88;11.55;;;;;;;28.73;46.67;100105.56;5074870;28;20040;1
2021/07/10 07:36:11;;;;;;;13.77;10.85;;;;;;;28.79;46.36;100117.69;5075586;28;20040;2
2021/07/10 07:38:37;;;;;;;15.25;10.45;;;;;;;28.95;46.05;100103.88;5076215;28;20115;1
2021/07/10 07:41:07;;;;;;;11.30;9.45;;;;;;;29.03;45.26;100107.66;5075194;28;20489;1
2021/07/10 07:43:34;;;;;;;10.63;9.52;;;;;;;28.92;44.68;100117.56;5076238;28;20102;1
2021/07/10 07:46:01;;;;;;;12.13;10.80;;;;;;;28.92;45.68;100104.97;5075066;28;20045;1
2021/07/10 07:48:27;;;;;;;10.30;9.20;;;;;;;28.90;44.45;100101.53;5076662;28;20037;1
2021/07/10 07:50:53;;;;;;;14.43;10.88;;;;;;;29.27;45.30;100104.00;5075948;28;20054;1
2021/07/10 07:53:19;;;;;;;12.48;9.50;;;;;;;29.46;43.66;100110.56;5075750;28;20041;1
2021/07/10 07:55:49;;;;;;;14.27;9.63;;;;;;;29.27;43.16;100085.16;5074441;28;20516;1
2021/07/10 07:58:15;;;;;;;10.10;9.05;;;;;;;29.33;42.84;100081.09;5074467;28;20466;1
2021/07/10 08:00:42;;;;;;;12.85;9.43;;;;;;;29.53;43.00;100098.31;5074743;28;20047;1
2021/07/10 08:03:08;;;;;;;10.57;9.38;;;;;;;29.58;42.60;100090.72;5075865;28;20455;1
2021/07/10 08:05:34;;;;;;;12.23;9.88;;;;;;;29.56;42.76;100081.06;5075845;28;20078;1
2021/07/10 08:08:00;;;;;;;12.27;10.43;;;;;;;29.64;42.53;100079.41;5074983;28;20047;1
2021/07/10 08:10:26;;;;;;;12.23;9.18;;;;;;;29.56;42.24;100083.75;5073606;28;20063;1
2021/07/10 08:12:53;;;;;;;12.02;9.15;;;;;;;29.66;41.96;100074.75;5075066;28;20052;1
2021/07/10 08:15:22;;;;;;;14.20;10.52;;;;;;;29.58;42.73;100071.00;5075409;28;20059;1
2021/07/10 08:17:49;;;;;;;10.25;9.23;;;;;;;29.71;42.17;100039.34;5075359;28;20459;1
2021/07/10 08:20:17;;;;;;;14.00;9.60;;;;;;;30.05;41.31;100076.97;5075398;28;20043;0
2021/07/10 08:22:44;;;;;;;11.32;8.88;;;;;;;30.08;40.67;100081.22;5075741;28;20435;1
2021/07/10 08:25:12;;;;;;;10.35;8.35;;;;;;;29.88;40.40;100067.59;5075361;28;20392;-9
2021/07/10 08:27:40;;;;;;;10.70;8.95;;;;;;;29.95;40.28;100044.53;5073901;28;20078;1
2021/07/10 08:30:08;;;;;;;9.77;8.73;;;;;;;30.40;39.96;100056.03;5075363;28;20064;1
2021/07/10 08:32:34;;;;;;;12.32;8.68;;;;;;;30.39;39.79;100074.06;5074575;28;20055;1
2021/07/10 08:35:01;;;;;;;10.98;8.57;;;;;;;30.63;39.59;100078.34;5075000;28;20128;1
2021/07/10 08:37:27;;;;;;;9.77;8.50;;;;;;;30.79;39.35;100069.72;5075358;28;20173;1
2021/07/10 08:39:54;;;;;;;13.13;8.63;;;;;;;30.94;39.41;100078.31;5074524;28;20048;1
2021/07/10 08:42:20;;;;;;;11.70;8.82;;;;;;;30.98;39.33;100068.97;5074083;28;20374;1
2021/07/10 08:44:51;;;;;;;9.93;8.95;;;;;;;31.08;38.68;100075.28;5073760;28;20032;1
2021/07/10 08:47:18;;;;;;;12.63;8.63;;;;;;;30.98;38.91;100072.50;5073610;28;20503;1
2021/07/10 08:49:44;;;;;;;9.77;8.77;;;;;;;30.74;39.57;100059.38;5073969;28;20036;1
2021/07/10 08:52:10;;;;;;;16.80;8.77;;;;;;;30.57;40.20;100063.50;5075257;28;20504;1
2021/07/10 08:54:39;;;;;;;12.25;9.18;;;;;;;30.70;39.90;100060.59;5074706;28;20036;1
2021/07/10 08:57:07;;;;;;;10.43;9.43;;;;;;;30.52;40.07;100066.63;5070479;28;20123;1
2021/07/10 08:59:35;;;;;;;14.55;9.15;;;;;;;30.35;39.75;100061.81;5065597;28;20417;1
2021/07/10 09:02:01;;;;;;;11.50;9.25;;;;;;;30.42;40.04;100062.16;5051233;28;20079;1
2021/07/10 09:04:27;;;;;;;19.83;9.18;;;;;;;30.44;39.84;100057.47;5049137;28;20045;1
2021/07/10 09:06:53;;;;;;;12.38;10.18;;;;;;;30.61;39.51;100047.91;5068170;28;20048;1
2021/07/10 09:09:19;;;;;;;10.88;9.52;;;;;;;30.61;38.68;100037.13;5068143;28;20036;1
2021/07/10 09:12:01;;;;;;;14.35;9.93;;;;;;;30.72;38.97;100049.69;5068064;28;20060;1
2021/07/10 09:14:30;;;;;;;13.50;10.45;;;;;;;30.83;38.82;100050.44;5063764;28;20517;0
2021/07/10 09:17:14;;;;;;;19.77;10.48;;;;;;;31.04;39.02;100051.34;5069412;28;20048;1
2021/07/10 09:19:40;;;;;;;13.88;9.82;;;;;;;31.13;39.10;100051.44;5069506;28;20568;1
2021/07/10 09:22:06;;;;;;;12.20;9.93;;;;;;;30.99;38.39;100043.69;5069196;28;20052;0
2021/07/10 09:24:35;;;;;;;13.93;9.40;;;;;;;30.89;39.43;100042.78;5069045;28;20040;1
2021/07/10 09:27:10;;;;;;;11.55;10.35;;;;;;;31.08;38.42;100026.69;5067660;28;20070;0
2021/07/10 09:29:40;;;;;;;11.90;9.93;;;;;;;31.41;36.27;100037.25;5052742;28;20032;1
2021/07/10 09:32:13;;;;;;;12.52;9.43;;;;;;;31.49;35.93;100038.25;5047467;28;20584;1
2021/07/10 09:34:45;;;;;;;10.98;9.73;;;;;;;31.69;36.46;100043.69;5052129;28;20041;1
2021/07/10 09:37:17;;;;;;;12.93;9.88;;;;;;;31.65;36.90;100040.44;5051032;28;20067;1
2021/07/10 09:40:05;;;;;;;10.65;9.65;;;;;;;31.72;35.48;100019.09;5053533;28;20041;1
2021/07/10 09:42:37;;;;;;;12.20;9.90;;;;;;;31.82;35.94;100011.84;5053814;28;20513;-1
2021/07/10 09:45:06;;;;;;;12.43;10.18;;;;;;;32.11;36.03;100032.56;5052600;28;20049;1
2021/07/10 09:47:35;;;;;;;13.88;9.82;;;;;;;31.71;37.24;100001.16;5053634;28;20515;1
2021/07/10 09:50:05;;;;;;;10.75;9.68;;;;;;;32.27;35.24;100026.56;5052376;28;20037;1
2021/07/10 09:52:35;;;;;;;13.02;10.65;;;;;;;32.21;35.89;100031.72;5053518;28;20074;1
2021/07/10 09:55:09;;;;;;;11.57;10.38;;;;;;;32.08;36.96;100018.47;5051756;28;20391;1
2021/07/10 09:57:38;;;;;;;10.73;9.63;;;;;;;32.43;36.22;100023.22;5064538;28;20040;1
2021/07/10 10:00:06;;;;;;;12.20;9.75;;;;;;;32.42;35.04;100007.16;5071782;28;20039;1
2021/07/10 10:02:41;;;;;;;12.07;10.00;;;;;;;32.79;34.36;100023.41;5071638;28;20044;1
2021/07/10 10:05:10;;;;;;;10.85;9.75;;;;;;;32.31;34.85;100022.56;5072339;28;20044;1
2021/07/10 10:07:48;;;;;;;15.10;9.77;;;;;;;32.37;36.30;100020.25;5073092;28;20036;1
2021/07/10 10:10:24;;;;;;;17.52;10.35;;;;;;;32.52;35.67;100009.84;5069780;28;20044;1
2021/07/10 10:13:05;;;;;;;12.98;9.48;;;;;;;32.81;35.91;100020.53;5054991;28;20179;2
2021/07/10 10:15:45;;;;;;;27.80;11.20;;;;;;;33.10;34.08;100006.84;5051685;28;20047;1
2021/07/10 10:18:14;;;;;;;11.13;9.67;;;;;;;33.22;34.55;100012.03;5053419;28;20067;1
2021/07/10 10:20:41;;;;;;;10.35;9.25;;;;;;;33.34;33.16;100024.38;5052081;28;20291;1
2021/07/10 10:23:09;;;;;;;10.77;9.50;;;;;;;33.42;33.40;100012.78;5052294;28;20098;1
2021/07/10 10:25:36;;;;;;;10.98;9.55;;;;;;;33.34;33.38;100013.56;5053020;28;20036;1
2021/07/10 10:28:07;;;;;;;11.43;9.50;;;;;;;33.01;35.09;100005.06;5052968;28;20087;1
2021/07/10 10:30:34;;;;;;;10.93;9.50;;;;;;;33.04;33.57;99999.31;5055550;28;20583;1
2021/07/10 10:33:01;;;;;;;11.23;9.32;;;;;;;32.87;33.74;99997.41;5072299;28;20048;1
2021/07/10 10:35:27;;;;;;;10.98;9.82;;;;;;;33.24;33.75;100000.03;5072800;28;20036;1
2021/07/10 10:37:54;;;;;;;10.38;9.43;;;;;;;33.08;33.49;99989.88;5072800;28;20401;1
2021/07/10 10:40:23;;;;;;;15.73;11.35;;;;;;;33.09;33.53;99964.50;5071639;28;20036;0
2021/07/10 10:42:55;;;;;;;10.75;9.65;;;;;;;32.56;34.26;99995.00;5072810;28;20043;0
2021/07/10 10:45:34;;;;;;;11.18;9.85;;;;;;;32.90;35.48;99991.72;5050490;28;20155;0
2021/07/10 10:48:00;;;;;;;12.02;9.57;;;;;;;33.01;33.66;99955.44;5052554;28;20120;-1
2021/07/10 10:50:38;;;;;;;11.88;10.68;;;;;;;33.59;34.52;99998.34;5052110;28;20033;0
2021/07/10 10:53:09;;;;;;;10.68;9.68;;;;;;;33.66;34.38;99995.88;5052273;28;20049;0
2021/07/10 10:55:39;;;;;;;12.93;9.93;;;;;;;33.60;34.96;100000.06;5050484;28;20041;2
2021/07/10 10:58:19;;;;;;;12.15;10.20;;;;;;;33.52;34.86;100000.00;5062594;28;20512;2
2021/07/10 11:01:11;;;;;;;14.45;10.20;;;;;;;33.24;35.26;99994.59;5072508;28;20028;1
2021/07/10 11:03:39;;;;;;;11.32;9.63;;;;;;;33.21;35.65;99986.81;5063723;28;20059;2
2021/07/10 11:06:06;;;;;;;12.77;9.63;;;;;;;32.99;36.20;99996.22;5052491;28;20083;2
2021/07/10 11:08:51;;;;;;;12.02;10.60;;;;;;;32.85;35.92;99997.56;5050843;28;20589;2
2021/07/10 11:11:19;;;;;;;18.08;11.60;;;;;;;33.01;35.02;99993.34;5051883;28;20053;2
2021/07/10 11:14:10;;;;;;;13.07;10.85;;;;;;;32.93;35.82;99984.16;5049224;28;20110;1
2021/07/10 11:16:57;;;;;;;12.02;9.93;;;;;;;33.01;35.34;99983.41;5050631;28;20075;1
2021/07/10 11:19:42;;;;;;;15.30;11.02;;;;;;;32.88;35.68;99975.63;5050413;28;20045;1
2021/07/10 11:22:08;;;;;;;11.30;10.10;;;;;;;32.72;36.39;99986.22;5050764;28;20037;2
2021/07/10 11:24:46;;;;;;;12.20;11.00;;;;;;;32.79;36.01;99968.44;5050512;28;20501;2
2021/07/10 11:27:12;;;;;;;12.65;11.40;;;;;;;32.85;35.89;99970.50;5049763;28;20056;1
2021/07/10 11:29:40;;;;;;;14.52;12.20;;;;;;;32.57;36.12;99966.94;5052028;28;20064;2
2021/07/10 11:32:12;;;;;;;14.10;11.73;;;;;;;32.54;36.43;99975.34;5052551;28;20045;1